Дата Пункты Температура Давл., мм. Влажн., % Ветер Погодные явления
Воздуха Воды Направл. Скорость
11.05.15 08:00 Одесса 17.0 14.0 759 61 С 2 09 часов
11.05.15 05:00 Одесса 15.0 14.0 758 70 С-З 2 06 часов
11.05.15 02:00 Одесса 15.0 14.0 758 67 С-З 2 03 часа
10.05.15 08:00 Одесса 17.0 14.0 758 54 З 1 21 час
10.05.15 05:00 Одесса 20.0 14.0 758 51 Ю 1 18 часов
10.05.15 02:00 Одесса 19.0 14.0 758 53 Ю 2 15 часов
10.05.15 11:00 Одесса 21.0 13.0 759 57 С 2 12 часов
10.05.15 08:00 Одесса 17.0 13.0 759 61 С 2 09 часов
10.05.15 05:00 Одесса 12.0 13.0 758 76 С-З 2 06 часов
10.05.15 02:00 Одесса 13.0 13.0 758 75 З 2 03 часа
09.05.15 08:00 Одесса 15.0 13.0 758 64 С-З 2 21 час
09.05.15 05:00 Одесса 18.0 13.0 757 57 С 2 18 часов
09.05.15 02:00 Одесса 21.0 13.0 758 44 С-З 2 15 часов
09.05.15 11:00 Одесса 19.0 12.0 758 49 С-З 3 12 часов
09.05.15 08:00 Одесса 16.0 12.0 758 64 С-З 2 09 часов
09.05.15 05:00 Одесса 11.0 13.0 758 83 З 2 06 часов
09.05.15 02:00 Одесса 12.0 13.0 758 78 С-З 2 03 часа
08.05.15 08:00 Одесса 13.0 13.0 758 78 С-З 2 21 час
08.05.15 05:00 Одесса 19.0 13.0 757 48 С-З 4 18 часов
08.05.15 02:00 Одесса 22.0 13.0 756 47 С-З 3 15 часов
Количество строк
321 322 323 324 325 326 327 328 329 330
Page 328 of 417